sensor_id;sensor_type;location;lat;lon;timestamp;P1;durP1;ratioP1;P2;durP2;ratioP2
71969;SDS011;59838;52.152;5.436;2023-04-24T00:00:58;0.50;;;0.20;;
71969;SDS011;59838;52.152;5.436;2023-04-24T00:03:27;0.98;;;0.28;;
71969;SDS011;59838;52.152;5.436;2023-04-24T00:05:54;1.90;;;0.20;;
71969;SDS011;59838;52.152;5.436;2023-04-24T00:08:21;0.90;;;0.20;;
71969;SDS011;59838;52.152;5.436;2023-04-24T00:10:48;1.25;;;0.30;;
71969;SDS011;59838;52.152;5.436;2023-04-24T00:13:15;0.70;;;0.20;;
71969;SDS011;59838;52.152;5.436;2023-04-24T00:15:41;0.70;;;0.28;;
71969;SDS011;59838;52.152;5.436;2023-04-24T00:18:08;0.93;;;0.20;;
71969;SDS011;59838;52.152;5.436;2023-04-24T00:20:35;0.53;;;0.20;;
71969;SDS011;59838;52.152;5.436;2023-04-24T00:23:04;0.22;;;0.10;;
71969;SDS011;59838;52.152;5.436;2023-04-24T00:25:31;0.60;;;0.20;;
71969;SDS011;59838;52.152;5.436;2023-04-24T00:27:57;0.60;;;0.30;;
71969;SDS011;59838;52.152;5.436;2023-04-24T00:30:23;0.60;;;0.20;;
71969;SDS011;59838;52.152;5.436;2023-04-24T00:32:50;1.87;;;0.30;;
71969;SDS011;59838;52.152;5.436;2023-04-24T00:35:17;1.00;;;0.30;;
71969;SDS011;59838;52.152;5.436;2023-04-24T00:37:45;0.77;;;0.40;;
71969;SDS011;59838;52.152;5.436;2023-04-24T00:40:12;0.85;;;0.35;;
71969;SDS011;59838;52.152;5.436;2023-04-24T00:42:39;0.82;;;0.38;;
71969;SDS011;59838;52.152;5.436;2023-04-24T00:45:07;1.00;;;0.40;;
71969;SDS011;59838;52.152;5.436;2023-04-24T00:47:33;2.75;;;0.40;;
71969;SDS011;59838;52.152;5.436;2023-04-24T00:50:01;0.90;;;0.32;;
71969;SDS011;59838;52.152;5.436;2023-04-24T00:52:29;2.25;;;0.40;;
71969;SDS011;59838;52.152;5.436;2023-04-24T00:54:58;0.93;;;0.40;;
71969;SDS011;59838;52.152;5.436;2023-04-24T00:57:24;1.73;;;0.43;;
71969;SDS011;59838;52.152;5.436;2023-04-24T00:59:51;2.35;;;0.40;;
71969;SDS011;59838;52.152;5.436;2023-04-24T01:02:19;1.08;;;0.57;;
71969;SDS011;59838;52.152;5.436;2023-04-24T01:04:47;1.05;;;0.60;;
71969;SDS011;59838;52.152;5.436;2023-04-24T01:07:16;1.65;;;0.60;;
71969;SDS011;59838;52.152;5.436;2023-04-24T01:09:47;1.63;;;0.90;;
71969;SDS011;59838;52.152;5.436;2023-04-24T01:12:15;1.23;;;0.60;;
71969;SDS011;59838;52.152;5.436;2023-04-24T01:14:41;1.60;;;0.77;;
71969;SDS011;59838;52.152;5.436;2023-04-24T01:17:08;1.65;;;0.93;;
71969;SDS011;59838;52.152;5.436;2023-04-24T01:19:35;1.77;;;0.90;;
71969;SDS011;59838;52.152;5.436;2023-04-24T01:22:02;1.53;;;0.70;;
71969;SDS011;59838;52.152;5.436;2023-04-24T01:24:29;1.83;;;0.90;;
71969;SDS011;59838;52.152;5.436;2023-04-24T01:26:56;1.60;;;1.10;;
71969;SDS011;59838;52.152;5.436;2023-04-24T01:29:23;1.83;;;1.05;;
71969;SDS011;59838;52.152;5.436;2023-04-24T01:31:50;1.75;;;1.23;;
71969;SDS011;59838;52.152;5.436;2023-04-24T01:34:16;4.00;;;1.37;;
71969;SDS011;59838;52.152;5.436;2023-04-24T01:36:43;4.03;;;1.80;;
71969;SDS011;59838;52.152;5.436;2023-04-24T01:39:12;5.50;;;1.63;;
71969;SDS011;59838;52.152;5.436;2023-04-24T01:41:42;3.08;;;1.60;;
71969;SDS011;59838;52.152;5.436;2023-04-24T01:44:08;1.90;;;1.40;;
71969;SDS011;59838;52.152;5.436;2023-04-24T01:46:35;3.07;;;1.80;;
71969;SDS011;59838;52.152;5.436;2023-04-24T01:49:03;3.53;;;1.20;;
71969;SDS011;59838;52.152;5.436;2023-04-24T01:51:29;3.03;;;2.00;;
71969;SDS011;59838;52.152;5.436;2023-04-24T01:53:57;2.20;;;1.60;;
71969;SDS011;59838;52.152;5.436;2023-04-24T01:56:24;6.28;;;1.77;;
71969;SDS011;59838;52.152;5.436;2023-04-24T01:58:51;2.63;;;1.50;;
71969;SDS011;59838;52.152;5.436;2023-04-24T02:01:20;2.38;;;1.38;;
71969;SDS011;59838;52.152;5.436;2023-04-24T02:03:47;2.00;;;1.40;;
71969;SDS011;59838;52.152;5.436;2023-04-24T02:06:13;3.08;;;1.50;;
71969;SDS011;59838;52.152;5.436;2023-04-24T02:08:40;2.72;;;1.33;;
71969;SDS011;59838;52.152;5.436;2023-04-24T02:11:08;2.67;;;1.40;;
71969;SDS011;59838;52.152;5.436;2023-04-24T02:13:35;3.00;;;1.80;;
71969;SDS011;59838;52.152;5.436;2023-04-24T02:16:02;3.45;;;1.85;;
71969;SDS011;59838;52.152;5.436;2023-04-24T02:18:28;3.65;;;1.80;;
71969;SDS011;59838;52.152;5.436;2023-04-24T02:20:55;5.47;;;1.90;;
71969;SDS011;59838;52.152;5.436;2023-04-24T02:23:21;2.60;;;1.57;;
71969;SDS011;59838;52.152;5.436;2023-04-24T02:25:48;2.75;;;1.90;;
71969;SDS011;59838;52.152;5.436;2023-04-24T02:28:14;2.85;;;1.48;;
71969;SDS011;59838;52.152;5.436;2023-04-24T02:30:41;2.83;;;2.10;;
71969;SDS011;59838;52.152;5.436;2023-04-24T02:33:07;3.05;;;1.50;;
71969;SDS011;59838;52.152;5.436;2023-04-24T02:35:34;2.70;;;1.60;;
71969;SDS011;59838;52.152;5.436;2023-04-24T02:38:00;2.72;;;1.83;;
71969;SDS011;59838;52.152;5.436;2023-04-24T02:40:27;2.13;;;1.00;;
71969;SDS011;59838;52.152;5.436;2023-04-24T02:42:53;1.95;;;1.13;;
71969;SDS011;59838;52.152;5.436;2023-04-24T02:45:20;2.15;;;1.45;;
71969;SDS011;59838;52.152;5.436;2023-04-24T02:47:46;1.70;;;1.10;;
71969;SDS011;59838;52.152;5.436;2023-04-24T02:50:13;1.85;;;1.20;;
71969;SDS011;59838;52.152;5.436;2023-04-24T02:52:40;2.65;;;1.20;;
71969;SDS011;59838;52.152;5.436;2023-04-24T02:55:06;2.67;;;1.48;;
71969;SDS011;59838;52.152;5.436;2023-04-24T02:57:34;5.68;;;1.42;;
71969;SDS011;59838;52.152;5.436;2023-04-24T03:00:00;3.53;;;1.23;;
71969;SDS011;59838;52.152;5.436;2023-04-24T03:02:27;2.17;;;1.30;;
71969;SDS011;59838;52.152;5.436;2023-04-24T03:04:53;2.42;;;1.45;;
71969;SDS011;59838;52.152;5.436;2023-04-24T03:07:21;2.53;;;1.67;;
71969;SDS011;59838;52.152;5.436;2023-04-24T03:09:47;4.72;;;1.63;;
71969;SDS011;59838;52.152;5.436;2023-04-24T03:12:14;2.47;;;1.37;;
71969;SDS011;59838;52.152;5.436;2023-04-24T03:14:40;3.85;;;1.60;;
71969;SDS011;59838;52.152;5.436;2023-04-24T03:17:07;3.05;;;1.80;;
71969;SDS011;59838;52.152;5.436;2023-04-24T03:19:33;2.20;;;1.23;;
71969;SDS011;59838;52.152;5.436;2023-04-24T03:22:01;2.50;;;1.75;;
71969;SDS011;59838;52.152;5.436;2023-04-24T03:24:29;3.87;;;1.80;;
71969;SDS011;59838;52.152;5.436;2023-04-24T03:26:56;2.90;;;1.63;;
71969;SDS011;59838;52.152;5.436;2023-04-24T03:29:23;2.70;;;1.52;;
71969;SDS011;59838;52.152;5.436;2023-04-24T03:31:50;2.88;;;1.75;;
71969;SDS011;59838;52.152;5.436;2023-04-24T03:34:16;2.60;;;1.88;;
71969;SDS011;59838;52.152;5.436;2023-04-24T03:36:43;2.40;;;1.43;;
71969;SDS011;59838;52.152;5.436;2023-04-24T03:39:09;2.05;;;1.23;;
71969;SDS011;59838;52.152;5.436;2023-04-24T03:41:36;3.58;;;1.00;;
71969;SDS011;59838;52.152;5.436;2023-04-24T03:44:02;2.05;;;1.10;;
71969;SDS011;59838;52.152;5.436;2023-04-24T03:46:29;2.00;;;1.00;;
71969;SDS011;59838;52.152;5.436;2023-04-24T03:48:56;1.40;;;0.60;;
71969;SDS011;59838;52.152;5.436;2023-04-24T03:51:22;1.85;;;1.00;;
71969;SDS011;59838;52.152;5.436;2023-04-24T03:53:49;2.95;;;0.90;;
71969;SDS011;59838;52.152;5.436;2023-04-24T03:56:15;2.03;;;0.95;;
71969;SDS011;59838;52.152;5.436;2023-04-24T03:58:42;2.85;;;1.20;;
71969;SDS011;59838;52.152;5.436;2023-04-24T04:01:09;1.77;;;1.00;;
71969;SDS011;59838;52.152;5.436;2023-04-24T04:03:36;3.80;;;1.45;;
71969;SDS011;59838;52.152;5.436;2023-04-24T04:06:03;3.83;;;1.63;;
71969;SDS011;59838;52.152;5.436;2023-04-24T04:08:30;2.38;;;1.55;;
71969;SDS011;59838;52.152;5.436;2023-04-24T04:10:57;2.60;;;1.35;;
71969;SDS011;59838;52.152;5.436;2023-04-24T04:13:23;4.07;;;1.43;;
71969;SDS011;59838;52.152;5.436;2023-04-24T04:15:50;3.60;;;1.25;;
71969;SDS011;59838;52.152;5.436;2023-04-24T04:18:17;1.95;;;1.10;;
71969;SDS011;59838;52.152;5.436;2023-04-24T04:20:43;2.50;;;0.88;;
71969;SDS011;59838;52.152;5.436;2023-04-24T04:23:10;2.50;;;1.25;;
71969;SDS011;59838;52.152;5.436;2023-04-24T04:25:36;2.47;;;1.00;;
71969;SDS011;59838;52.152;5.436;2023-04-24T04:28:03;1.65;;;0.77;;
71969;SDS011;59838;52.152;5.436;2023-04-24T04:30:29;3.70;;;0.70;;
71969;SDS011;59838;52.152;5.436;2023-04-24T04:32:58;1.85;;;0.40;;
71969;SDS011;59838;52.152;5.436;2023-04-24T04:35:25;1.65;;;0.47;;
71969;SDS011;59838;52.152;5.436;2023-04-24T04:37:52;3.13;;;0.50;;
71969;SDS011;59838;52.152;5.436;2023-04-24T04:40:18;1.95;;;0.45;;
71969;SDS011;59838;52.152;5.436;2023-04-24T04:42:45;2.17;;;0.40;;
71969;SDS011;59838;52.152;5.436;2023-04-24T04:45:12;1.17;;;0.45;;
71969;SDS011;59838;52.152;5.436;2023-04-24T04:47:38;4.30;;;0.55;;
71969;SDS011;59838;52.152;5.436;2023-04-24T04:50:09;1.53;;;0.60;;
71969;SDS011;59838;52.152;5.436;2023-04-24T04:52:36;1.67;;;0.60;;
71969;SDS011;59838;52.152;5.436;2023-04-24T04:55:03;1.25;;;0.40;;
71969;SDS011;59838;52.152;5.436;2023-04-24T04:57:29;2.20;;;0.50;;
71969;SDS011;59838;52.152;5.436;2023-04-24T04:59:56;1.60;;;0.70;;
71969;SDS011;59838;52.152;5.436;2023-04-24T05:02:23;1.80;;;0.80;;
71969;SDS011;59838;52.152;5.436;2023-04-24T05:04:49;1.85;;;1.00;;
71969;SDS011;59838;52.152;5.436;2023-04-24T05:07:16;2.33;;;1.02;;
71969;SDS011;59838;52.152;5.436;2023-04-24T05:09:44;2.47;;;1.10;;
71969;SDS011;59838;52.152;5.436;2023-04-24T05:12:10;2.88;;;1.38;;
71969;SDS011;59838;52.152;5.436;2023-04-24T05:14:37;3.53;;;1.60;;
71969;SDS011;59838;52.152;5.436;2023-04-24T05:17:03;2.83;;;1.30;;
71969;SDS011;59838;52.152;5.436;2023-04-24T05:19:30;5.10;;;1.65;;
71969;SDS011;59838;52.152;5.436;2023-04-24T05:21:59;3.33;;;1.55;;
71969;SDS011;59838;52.152;5.436;2023-04-24T05:24:25;3.08;;;1.92;;
71969;SDS011;59838;52.152;5.436;2023-04-24T05:26:51;6.90;;;2.27;;
71969;SDS011;59838;52.152;5.436;2023-04-24T05:29:18;2.97;;;1.85;;
71969;SDS011;59838;52.152;5.436;2023-04-24T05:31:45;3.42;;;2.17;;
71969;SDS011;59838;52.152;5.436;2023-04-24T05:34:11;3.60;;;1.70;;
71969;SDS011;59838;52.152;5.436;2023-04-24T05:36:38;4.38;;;1.98;;
71969;SDS011;59838;52.152;5.436;2023-04-24T05:39:04;3.57;;;1.80;;
71969;SDS011;59838;52.152;5.436;2023-04-24T05:41:33;4.57;;;2.45;;
71969;SDS011;59838;52.152;5.436;2023-04-24T05:44:00;3.47;;;2.00;;
71969;SDS011;59838;52.152;5.436;2023-04-24T05:46:27;4.57;;;1.33;;
71969;SDS011;59838;52.152;5.436;2023-04-24T05:48:53;3.42;;;1.73;;
71969;SDS011;59838;52.152;5.436;2023-04-24T05:51:20;3.70;;;1.60;;
71969;SDS011;59838;52.152;5.436;2023-04-24T05:53:46;3.40;;;1.52;;
71969;SDS011;59838;52.152;5.436;2023-04-24T05:56:13;2.58;;;1.45;;
71969;SDS011;59838;52.152;5.436;2023-04-24T05:58:39;7.93;;;1.10;;
71969;SDS011;59838;52.152;5.436;2023-04-24T06:01:07;2.50;;;0.90;;
71969;SDS011;59838;52.152;5.436;2023-04-24T06:03:33;2.63;;;0.93;;
71969;SDS011;59838;52.152;5.436;2023-04-24T06:06:00;1.80;;;0.57;;
71969;SDS011;59838;52.152;5.436;2023-04-24T06:08:27;2.75;;;0.40;;
71969;SDS011;59838;52.152;5.436;2023-04-24T06:10:53;1.65;;;0.60;;
71969;SDS011;59838;52.152;5.436;2023-04-24T06:13:20;1.63;;;0.50;;
71969;SDS011;59838;52.152;5.436;2023-04-24T06:15:46;1.20;;;0.50;;
71969;SDS011;59838;52.152;5.436;2023-04-24T06:18:13;2.35;;;0.52;;
71969;SDS011;59838;52.152;5.436;2023-04-24T06:20:39;1.05;;;0.20;;
71969;SDS011;59838;52.152;5.436;2023-04-24T06:23:07;0.88;;;0.40;;
71969;SDS011;59838;52.152;5.436;2023-04-24T06:25:33;0.88;;;0.20;;
71969;SDS011;59838;52.152;5.436;2023-04-24T06:28:00;0.97;;;0.20;;
71969;SDS011;59838;52.152;5.436;2023-04-24T06:30:27;2.55;;;0.20;;
71969;SDS011;59838;52.152;5.436;2023-04-24T06:32:54;1.02;;;0.30;;
71969;SDS011;59838;52.152;5.436;2023-04-24T06:35:28;0.40;;;0.13;;
71969;SDS011;59838;52.152;5.436;2023-04-24T06:37:54;0.50;;;0.20;;
71969;SDS011;59838;52.152;5.436;2023-04-24T06:40:22;1.10;;;0.20;;
71969;SDS011;59838;52.152;5.436;2023-04-24T06:42:49;2.13;;;0.73;;
71969;SDS011;59838;52.152;5.436;2023-04-24T06:45:15;2.97;;;1.45;;
71969;SDS011;59838;52.152;5.436;2023-04-24T06:47:41;2.80;;;1.70;;
71969;SDS011;59838;52.152;5.436;2023-04-24T06:50:08;4.22;;;2.72;;
71969;SDS011;59838;52.152;5.436;2023-04-24T06:52:35;6.33;;;2.97;;
71969;SDS011;59838;52.152;5.436;2023-04-24T06:55:02;4.97;;;2.95;;
71969;SDS011;59838;52.152;5.436;2023-04-24T06:57:29;6.78;;;3.40;;
71969;SDS011;59838;52.152;5.436;2023-04-24T06:59:56;9.25;;;4.35;;
71969;SDS011;59838;52.152;5.436;2023-04-24T07:02:23;6.85;;;3.72;;
71969;SDS011;59838;52.152;5.436;2023-04-24T07:04:49;7.23;;;3.47;;
71969;SDS011;59838;52.152;5.436;2023-04-24T07:07:16;7.47;;;3.55;;
71969;SDS011;59838;52.152;5.436;2023-04-24T07:09:42;6.47;;;3.95;;
71969;SDS011;59838;52.152;5.436;2023-04-24T07:12:10;8.00;;;4.80;;
71969;SDS011;59838;52.152;5.436;2023-04-24T07:14:37;6.72;;;4.20;;
71969;SDS011;59838;52.152;5.436;2023-04-24T07:17:04;8.50;;;4.80;;
71969;SDS011;59838;52.152;5.436;2023-04-24T07:19:33;9.30;;;4.72;;
71969;SDS011;59838;52.152;5.436;2023-04-24T07:22:00;11.80;;;4.00;;
71969;SDS011;59838;52.152;5.436;2023-04-24T07:24:27;5.18;;;3.30;;
71969;SDS011;59838;52.152;5.436;2023-04-24T07:26:55;6.90;;;4.15;;
71969;SDS011;59838;52.152;5.436;2023-04-24T07:29:23;9.77;;;4.27;;
71969;SDS011;59838;52.152;5.436;2023-04-24T07:31:49;9.13;;;3.40;;
71969;SDS011;59838;52.152;5.436;2023-04-24T07:34:16;7.20;;;3.70;;
71969;SDS011;59838;52.152;5.436;2023-04-24T07:36:42;6.20;;;3.88;;
71969;SDS011;59838;52.152;5.436;2023-04-24T07:39:09;6.03;;;3.00;;
71969;SDS011;59838;52.152;5.436;2023-04-24T07:41:35;4.57;;;3.13;;
71969;SDS011;59838;52.152;5.436;2023-04-24T07:44:02;12.40;;;3.20;;
71969;SDS011;59838;52.152;5.436;2023-04-24T07:46:29;12.70;;;3.15;;
71969;SDS011;59838;52.152;5.436;2023-04-24T07:48:56;6.40;;;3.28;;
71969;SDS011;59838;52.152;5.436;2023-04-24T07:51:39;7.43;;;3.40;;
71969;SDS011;59838;52.152;5.436;2023-04-24T07:54:06;9.10;;;3.13;;
71969;SDS011;59838;52.152;5.436;2023-04-24T07:56:32;8.63;;;3.15;;
71969;SDS011;59838;52.152;5.436;2023-04-24T07:58:59;6.80;;;3.15;;
71969;SDS011;59838;52.152;5.436;2023-04-24T08:01:27;7.43;;;3.22;;
71969;SDS011;59838;52.152;5.436;2023-04-24T08:03:53;9.70;;;3.80;;
71969;SDS011;59838;52.152;5.436;2023-04-24T08:06:21;7.70;;;3.37;;
71969;SDS011;59838;52.152;5.436;2023-04-24T08:08:47;8.63;;;3.47;;
71969;SDS011;59838;52.152;5.436;2023-04-24T08:11:14;6.40;;;2.92;;
71969;SDS011;59838;52.152;5.436;2023-04-24T08:13:40;10.15;;;3.55;;
71969;SDS011;59838;52.152;5.436;2023-04-24T08:16:07;6.55;;;3.67;;
71969;SDS011;59838;52.152;5.436;2023-04-24T08:18:33;10.50;;;2.20;;
71969;SDS011;59838;52.152;5.436;2023-04-24T08:21:02;5.95;;;2.22;;
71969;SDS011;59838;52.152;5.436;2023-04-24T08:23:28;4.30;;;1.45;;
71969;SDS011;59838;52.152;5.436;2023-04-24T08:25:55;11.93;;;2.95;;
71969;SDS011;59838;52.152;5.436;2023-04-24T08:28:23;9.68;;;2.00;;
71969;SDS011;59838;52.152;5.436;2023-04-24T08:30:50;5.97;;;1.53;;
71969;SDS011;59838;52.152;5.436;2023-04-24T08:33:24;9.45;;;2.75;;
71969;SDS011;59838;52.152;5.436;2023-04-24T08:35:50;3.85;;;1.40;;
71969;SDS011;59838;52.152;5.436;2023-04-24T08:38:17;9.25;;;1.42;;
71969;SDS011;59838;52.152;5.436;2023-04-24T08:40:43;4.35;;;1.48;;
71969;SDS011;59838;52.152;5.436;2023-04-24T08:43:12;10.43;;;2.23;;
71969;SDS011;59838;52.152;5.436;2023-04-24T08:45:40;9.15;;;1.63;;
71969;SDS011;59838;52.152;5.436;2023-04-24T08:48:07;4.55;;;1.63;;
71969;SDS011;59838;52.152;5.436;2023-04-24T08:50:50;7.45;;;1.63;;
71969;SDS011;59838;52.152;5.436;2023-04-24T08:53:17;8.85;;;1.92;;
71969;SDS011;59838;52.152;5.436;2023-04-24T08:55:47;14.50;;;1.50;;
71969;SDS011;59838;52.152;5.436;2023-04-24T08:58:15;6.18;;;1.30;;
71969;SDS011;59838;52.152;5.436;2023-04-24T09:00:42;4.70;;;0.90;;
71969;SDS011;59838;52.152;5.436;2023-04-24T09:03:13;9.38;;;0.98;;
71969;SDS011;59838;52.152;5.436;2023-04-24T09:05:43;10.57;;;1.27;;
71969;SDS011;59838;52.152;5.436;2023-04-24T09:08:12;4.60;;;0.73;;
71969;SDS011;59838;52.152;5.436;2023-04-24T09:10:40;10.63;;;2.03;;
71969;SDS011;59838;52.152;5.436;2023-04-24T09:13:07;11.48;;;1.30;;
71969;SDS011;59838;52.152;5.436;2023-04-24T09:15:37;8.45;;;0.80;;
71969;SDS011;59838;52.152;5.436;2023-04-24T09:18:04;6.30;;;0.82;;
71969;SDS011;59838;52.152;5.436;2023-04-24T09:20:31;14.23;;;0.67;;
71969;SDS011;59838;52.152;5.436;2023-04-24T09:22:58;6.05;;;0.90;;
71969;SDS011;59838;52.152;5.436;2023-04-24T09:25:30;4.45;;;0.55;;
71969;SDS011;59838;52.152;5.436;2023-04-24T09:28:02;8.38;;;0.95;;
71969;SDS011;59838;52.152;5.436;2023-04-24T09:30:29;14.80;;;0.77;;
71969;SDS011;59838;52.152;5.436;2023-04-24T09:35:42;5.72;;;1.20;;
71969;SDS011;59838;52.152;5.436;2023-04-24T09:38:16;4.20;;;0.77;;
71969;SDS011;59838;52.152;5.436;2023-04-24T09:40:42;8.48;;;0.70;;
71969;SDS011;59838;52.152;5.436;2023-04-24T09:43:12;5.40;;;0.80;;
71969;SDS011;59838;52.152;5.436;2023-04-24T09:45:39;9.70;;;1.00;;
71969;SDS011;59838;52.152;5.436;2023-04-24T09:48:09;8.05;;;1.13;;
71969;SDS011;59838;52.152;5.436;2023-04-24T09:50:36;6.60;;;0.90;;
71969;SDS011;59838;52.152;5.436;2023-04-24T09:53:03;4.43;;;0.70;;
71969;SDS011;59838;52.152;5.436;2023-04-24T09:55:32;3.45;;;1.15;;
71969;SDS011;59838;52.152;5.436;2023-04-24T09:57:59;5.03;;;0.53;;
71969;SDS011;59838;52.152;5.436;2023-04-24T10:00:28;4.60;;;0.80;;
71969;SDS011;59838;52.152;5.436;2023-04-24T10:03:04;3.67;;;0.50;;
71969;SDS011;59838;52.152;5.436;2023-04-24T10:05:35;5.00;;;0.60;;
71969;SDS011;59838;52.152;5.436;2023-04-24T10:08:06;3.55;;;0.52;;
71969;SDS011;59838;52.152;5.436;2023-04-24T10:10:35;6.10;;;0.50;;
71969;SDS011;59838;52.152;5.436;2023-04-24T10:13:05;6.75;;;1.23;;
71969;SDS011;59838;52.152;5.436;2023-04-24T10:15:33;4.97;;;0.50;;
71969;SDS011;59838;52.152;5.436;2023-04-24T10:18:01;6.57;;;1.15;;
71969;SDS011;59838;52.152;5.436;2023-04-24T10:20:30;7.57;;;0.82;;
71969;SDS011;59838;52.152;5.436;2023-04-24T10:22:57;3.40;;;0.73;;
71969;SDS011;59838;52.152;5.436;2023-04-24T10:25:29;4.50;;;1.10;;
71969;SDS011;59838;52.152;5.436;2023-04-24T10:27:58;4.07;;;0.40;;
71969;SDS011;59838;52.152;5.436;2023-04-24T10:30:26;2.78;;;0.30;;
71969;SDS011;59838;52.152;5.436;2023-04-24T10:32:55;6.43;;;1.42;;
71969;SDS011;59838;52.152;5.436;2023-04-24T10:35:22;3.10;;;0.70;;
71969;SDS011;59838;52.152;5.436;2023-04-24T10:38:05;2.28;;;0.30;;
71969;SDS011;59838;52.152;5.436;2023-04-24T10:40:35;3.60;;;0.75;;
71969;SDS011;59838;52.152;5.436;2023-04-24T10:43:03;2.13;;;0.20;;
71969;SDS011;59838;52.152;5.436;2023-04-24T10:45:35;2.92;;;0.20;;
71969;SDS011;59838;52.152;5.436;2023-04-24T10:48:03;2.10;;;0.30;;
71969;SDS011;59838;52.152;5.436;2023-04-24T10:50:45;2.20;;;0.45;;
71969;SDS011;59838;52.152;5.436;2023-04-24T10:53:17;1.98;;;0.20;;
71969;SDS011;59838;52.152;5.436;2023-04-24T11:04:22;2.40;;;0.30;;
71969;SDS011;59838;52.152;5.436;2023-04-24T11:06:56;2.75;;;0.28;;
71969;SDS011;59838;52.152;5.436;2023-04-24T11:09:23;2.50;;;0.20;;
71969;SDS011;59838;52.152;5.436;2023-04-24T11:12:02;4.57;;;0.22;;
71969;SDS011;59838;52.152;5.436;2023-04-24T11:17:32;3.22;;;0.50;;
71969;SDS011;59838;52.152;5.436;2023-04-24T11:22:54;2.42;;;0.60;;
71969;SDS011;59838;52.152;5.436;2023-04-24T11:25:21;6.15;;;0.30;;
71969;SDS011;59838;52.152;5.436;2023-04-24T11:27:48;4.30;;;0.37;;
71969;SDS011;59838;52.152;5.436;2023-04-24T11:30:19;4.88;;;0.32;;
71969;SDS011;59838;52.152;5.436;2023-04-24T11:32:47;4.82;;;0.40;;
71969;SDS011;59838;52.152;5.436;2023-04-24T11:35:22;1.27;;;0.20;;
71969;SDS011;59838;52.152;5.436;2023-04-24T11:37:52;1.75;;;0.20;;
71969;SDS011;59838;52.152;5.436;2023-04-24T11:40:39;1.07;;;0.20;;
71969;SDS011;59838;52.152;5.436;2023-04-24T11:43:06;3.63;;;0.50;;
71969;SDS011;59838;52.152;5.436;2023-04-24T11:45:34;1.67;;;0.15;;
71969;SDS011;59838;52.152;5.436;2023-04-24T11:48:02;1.38;;;0.10;;
71969;SDS011;59838;52.152;5.436;2023-04-24T11:50:30;0.52;;;0.20;;
71969;SDS011;59838;52.152;5.436;2023-04-24T11:52:56;0.83;;;0.10;;
71969;SDS011;59838;52.152;5.436;2023-04-24T11:57:53;1.95;;;0.10;;
71969;SDS011;59838;52.152;5.436;2023-04-24T12:00:23;2.92;;;0.20;;
71969;SDS011;59838;52.152;5.436;2023-04-24T12:02:51;1.05;;;0.20;;
71969;SDS011;59838;52.152;5.436;2023-04-24T12:05:29;3.23;;;0.20;;
71969;SDS011;59838;52.152;5.436;2023-04-24T12:07:59;1.27;;;0.10;;
71969;SDS011;59838;52.152;5.436;2023-04-24T12:10:27;1.60;;;0.30;;
71969;SDS011;59838;52.152;5.436;2023-04-24T12:12:56;2.35;;;0.73;;
71969;SDS011;59838;52.152;5.436;2023-04-24T12:15:23;2.38;;;0.10;;
71969;SDS011;59838;52.152;5.436;2023-04-24T12:17:51;2.73;;;0.20;;
71969;SDS011;59838;52.152;5.436;2023-04-24T12:20:23;1.15;;;0.20;;
71969;SDS011;59838;52.152;5.436;2023-04-24T12:22:52;2.15;;;0.45;;
71969;SDS011;59838;52.152;5.436;2023-04-24T12:25:21;3.25;;;0.28;;
71969;SDS011;59838;52.152;5.436;2023-04-24T12:27:53;2.67;;;0.30;;
71969;SDS011;59838;52.152;5.436;2023-04-24T12:30:21;2.57;;;0.20;;
71969;SDS011;59838;52.152;5.436;2023-04-24T12:32:54;2.20;;;0.30;;
71969;SDS011;59838;52.152;5.436;2023-04-24T12:35:24;3.03;;;0.40;;
71969;SDS011;59838;52.152;5.436;2023-04-24T12:37:52;1.65;;;0.30;;
71969;SDS011;59838;52.152;5.436;2023-04-24T12:40:18;1.63;;;0.20;;
71969;SDS011;59838;52.152;5.436;2023-04-24T12:42:47;3.70;;;0.40;;
71969;SDS011;59838;52.152;5.436;2023-04-24T12:45:15;1.38;;;0.20;;
71969;SDS011;59838;52.152;5.436;2023-04-24T12:47:43;8.45;;;0.60;;
71969;SDS011;59838;52.152;5.436;2023-04-24T12:50:12;4.63;;;0.30;;
71969;SDS011;59838;52.152;5.436;2023-04-24T12:52:40;3.15;;;0.50;;
71969;SDS011;59838;52.152;5.436;2023-04-24T12:55:07;5.67;;;0.40;;
71969;SDS011;59838;52.152;5.436;2023-04-24T12:57:36;4.63;;;0.57;;
71969;SDS011;59838;52.152;5.436;2023-04-24T13:00:03;3.42;;;0.50;;
71969;SDS011;59838;52.152;5.436;2023-04-24T13:02:32;2.70;;;0.30;;
71969;SDS011;59838;52.152;5.436;2023-04-24T13:05:00;3.00;;;1.13;;
71969;SDS011;59838;52.152;5.436;2023-04-24T13:07:27;3.63;;;0.30;;
71969;SDS011;59838;52.152;5.436;2023-04-24T13:09:54;4.03;;;0.55;;
71969;SDS011;59838;52.152;5.436;2023-04-24T13:12:21;5.43;;;0.80;;
71969;SDS011;59838;52.152;5.436;2023-04-24T13:14:49;3.10;;;0.60;;
71969;SDS011;59838;52.152;5.436;2023-04-24T13:17:16;7.97;;;0.65;;
71969;SDS011;59838;52.152;5.436;2023-04-24T13:19:43;8.40;;;1.10;;
71969;SDS011;59838;52.152;5.436;2023-04-24T13:22:11;8.45;;;1.13;;
71969;SDS011;59838;52.152;5.436;2023-04-24T13:24:38;6.30;;;1.08;;
71969;SDS011;59838;52.152;5.436;2023-04-24T13:27:08;7.88;;;0.70;;
71969;SDS011;59838;52.152;5.436;2023-04-24T13:29:36;6.97;;;0.80;;
71969;SDS011;59838;52.152;5.436;2023-04-24T13:32:03;7.60;;;0.93;;
71969;SDS011;59838;52.152;5.436;2023-04-24T13:34:30;5.22;;;0.73;;
71969;SDS011;59838;52.152;5.436;2023-04-24T13:36:57;6.38;;;0.55;;
71969;SDS011;59838;52.152;5.436;2023-04-24T13:39:25;6.10;;;0.88;;
71969;SDS011;59838;52.152;5.436;2023-04-24T13:41:52;7.22;;;1.13;;
71969;SDS011;59838;52.152;5.436;2023-04-24T13:44:19;9.37;;;0.73;;
71969;SDS011;59838;52.152;5.436;2023-04-24T13:46:49;4.57;;;0.60;;
71969;SDS011;59838;52.152;5.436;2023-04-24T13:49:18;6.65;;;0.95;;
71969;SDS011;59838;52.152;5.436;2023-04-24T13:51:44;8.90;;;0.77;;
71969;SDS011;59838;52.152;5.436;2023-04-24T13:54:12;5.93;;;0.60;;
71969;SDS011;59838;52.152;5.436;2023-04-24T13:56:39;6.37;;;0.60;;
71969;SDS011;59838;52.152;5.436;2023-04-24T13:59:06;4.88;;;1.00;;
71969;SDS011;59838;52.152;5.436;2023-04-24T14:01:33;6.38;;;0.85;;
71969;SDS011;59838;52.152;5.436;2023-04-24T14:03:59;4.57;;;0.68;;
71969;SDS011;59838;52.152;5.436;2023-04-24T14:06:26;5.57;;;0.88;;
71969;SDS011;59838;52.152;5.436;2023-04-24T14:08:53;5.37;;;0.83;;
71969;SDS011;59838;52.152;5.436;2023-04-24T14:11:19;10.18;;;1.10;;
71969;SDS011;59838;52.152;5.436;2023-04-24T14:13:46;4.20;;;1.05;;
71969;SDS011;59838;52.152;5.436;2023-04-24T14:16:12;9.98;;;1.17;;
71969;SDS011;59838;52.152;5.436;2023-04-24T14:18:40;5.22;;;1.50;;
71969;SDS011;59838;52.152;5.436;2023-04-24T14:21:06;4.57;;;0.90;;
71969;SDS011;59838;52.152;5.436;2023-04-24T14:23:33;4.63;;;1.20;;
71969;SDS011;59838;52.152;5.436;2023-04-24T14:26:00;4.57;;;0.70;;
71969;SDS011;59838;52.152;5.436;2023-04-24T14:28:26;5.22;;;1.05;;
71969;SDS011;59838;52.152;5.436;2023-04-24T14:30:53;5.15;;;1.38;;
71969;SDS011;59838;52.152;5.436;2023-04-24T14:33:20;5.00;;;0.83;;
71969;SDS011;59838;52.152;5.436;2023-04-24T14:35:47;5.72;;;1.05;;
71969;SDS011;59838;52.152;5.436;2023-04-24T14:38:14;5.35;;;0.82;;
71969;SDS011;59838;52.152;5.436;2023-04-24T14:40:41;7.05;;;0.80;;
71969;SDS011;59838;52.152;5.436;2023-04-24T14:43:11;7.22;;;1.13;;
71969;SDS011;59838;52.152;5.436;2023-04-24T14:45:37;4.73;;;0.80;;
71969;SDS011;59838;52.152;5.436;2023-04-24T14:48:04;6.22;;;0.82;;
71969;SDS011;59838;52.152;5.436;2023-04-24T14:50:31;9.70;;;1.48;;
71969;SDS011;59838;52.152;5.436;2023-04-24T14:52:58;9.02;;;1.10;;
71969;SDS011;59838;52.152;5.436;2023-04-24T14:55:25;7.35;;;1.08;;
71969;SDS011;59838;52.152;5.436;2023-04-24T14:57:52;9.57;;;0.90;;
71969;SDS011;59838;52.152;5.436;2023-04-24T15:00:19;7.32;;;0.88;;
71969;SDS011;59838;52.152;5.436;2023-04-24T15:02:46;7.75;;;1.05;;
71969;SDS011;59838;52.152;5.436;2023-04-24T15:05:13;4.60;;;1.13;;
71969;SDS011;59838;52.152;5.436;2023-04-24T15:07:40;8.07;;;1.42;;
71969;SDS011;59838;52.152;5.436;2023-04-24T15:10:08;9.17;;;1.53;;